首页
METAR-TAF:

METAR-TAF

机场 :

Offutt Air Force Base

奥马哈, 內布拉斯加州, 美国

纬度: 41-07N, 经度: 095-54W, 海拔: 319米

当前天气观测

该预报发布于19分钟前的23:56 UTC
温度 28°C
湿度 35%
气压 1007 hPa
能見度: 11.3公里
天空无云

METAR: KOFF 242356Z 7SM CLR 28/11 A2975 RMK AO2A SLP061 RVRNO $

时间: 19:15 (00:15 UTC)

预报

该预报发布于6小时和15分钟前的18:00 UTC
预报有效从24日的 18点(UTC)到 25日的 24点(UTC)
风速10节,风向西,有时为15节阵风
能见度10公里或以上
少量云层高于5000英尺
成为
从 24日的 23点(UTC)到 24日的 24点(UTC)
风速9节,风向南转西南
能见度10公里或以上
少量云层高于5000英尺
成为
从 25日的 07点(UTC)到 25日的 08点(UTC)
风速9节,风向
能见度10公里或以上
散云层高于10000英尺
成为
从 25日的 17点(UTC)到 25日的 18点(UTC)
风速12节,风向西转西南
能見度: 8000
散云层高于6000英尺
多云层高于10000英尺
小阵雨

TAF: KOFF 241800Z 2418/2524 26010G15KT 9999 FEW050 QNH2974INS BECMG 2423/2424 20009KT 9999 FEW050 QNH2974INS BECMG 2507/2508 18009KT 9999 SCT100 WS020/27035KT QNH2980INS BECMG 2517/2518 24012KT 8000 -SHRA SCT060 BKN100 QNH2983INS TX27/2422Z TN18/2510Z

超过4000个机场的气象观测和天气预报(METAR&TAF报告)。

可查询的气象台以黄色和红色小点在地图上表示。

将鼠标移到小点上方,可查看气象台名称。

然后点击查看天气观测和预报。

如需切换地图:点击带黑十字的绿色按钮放大地图;点击带横线的绿色按钮缩小地图;或者点击绿色箭头查看邻近地区的地图。


METAR-TAF: